Airfield :
LOGIN :

Register | Disclaimer

   EN    FR    IT 

 










Legend :    VFR   Marginal VFR   IFR   Intensive IFR   Very Intensive IFR
Visi :
Ceiling :
>= 8 km
>= 3000ft
5 to 8 km
1000 to 3000 ft
1500m to 5 km
500 to 1000 ft
800 to 1500m
200 to 500 ft
< 800m
< 200 ft
Symbols :   Thunderstorms  Fog  Heavy snow  Heavy precipitations  Wind > 20 kt
SIGMETs :     Misc.  Thunderstorms  Icing  Turbulence  Mountain Waves  Volcanic Ashes






- Airport Elevation : 1046 ft
- IATA code : NUE


EDDN - Nuremberg

CURRENT METAR :
  • 201350Z 30015KT 3500 SHSN FEW013 SCT023TCU BKN040 02/M03 Q1022 BECMG 9000 NSW

EXPIRED METARs :
  • 201320Z 27014KT 9999 FEW013 SCT040 02/M01 Q1022 TEMPO 4000 -SHSN BKN012TCU
  • 201250Z 28012KT 9999 FEW011 SCT040 02/M01 Q1022 TEMPO 4000 -SHSN BKN012TCU
  • 201220Z 28011KT 9999 -SN FEW007 SCT030 BKN045 01/M01 Q1022 TEMPO 4000 -SHSN BKN012TCU
  • 201150Z 29009KT 9000 -SN FEW007 BKN041 00/M01 Q1022 TEMPO 4000 -SHSN BKN012TCU
  • 201120Z 31013KT 1400 R28/P2000N -SHSN BKN006TCU M00/M01 Q1022 RESHGS BECMG 3000 FEW004 BKN015
  • 201050Z 32020G32KT 290V350 1200 R28/1900N SHGSSN BKN004CB 00/M01 Q1022 BECMG 3000 -SHSN FEW004 BKN015

TAF TAF EDDN
Valid from the 20 at 12:00 until the 21 at 12:00 UTC


201100Z 2012/2112 28012KT 9999 BKN025
PROB40
TEMPO 2012/2015 28015G25KT
PROB30
TEMPO 2019/2102 4000 -SHSN BKN012TCU
BECMG 2100/2102 29007KT
PROB30
TEMPO 2109/2112 29015G25KT 3000 -SHSN BKN010TCU



MET'MAP, your aeronautical weather chart ! - Copyright ORBIFLY December 2007 - Disclaimer

ORBIFLY MET'MAP TEAM :

Programming & Development : Alexandra Zaïnal
Concept & original design : Baudouin d'Aumeries
Assistance for programming : Marc-Olivier Méhu
Technical & hardware support : Manuel Goepfert

Contact : metmap@orbifly.com




SOURCES & CREDITS :

   NOAA